Time;durP1;ratioP1;P1;durP2;ratioP2;P2;SDS_P1;SDS_P2;PMS_P1;PMS_P2;Temp;Humidity;BMP_temperature;BMP_pressure;BME280_temperature;BME280_humidity;BME280_pressure;Samples;Min_cycle;Max_cycle;Signal;HPM_P1;HPM_P2
2022/06/04 00:03:19;;;;;;;5.50;5.00;;;;;;;21.75;59.35;98730.00;6921867;28;20260;-77
2022/06/04 00:06:40;;;;;;;5.90;5.40;;;;;;;21.83;59.00;98712.16;6921802;28;20205;-78
2022/06/04 00:17:22;;;;;;;4.80;4.30;;;;;;;22.16;57.49;98737.00;6921642;28;20185;-78
2022/06/04 00:20:44;;;;;;;5.40;4.40;;;;;;;21.82;58.47;98726.97;6921252;28;20271;-78
2022/06/04 00:24:06;;;;;;;5.50;4.83;;;;;;;22.07;58.40;98719.47;6921235;28;20645;-78
2022/06/04 00:27:28;;;;;;;5.03;4.37;;;;;;;21.83;58.46;98698.44;6921396;28;20290;-78
2022/06/04 00:30:51;;;;;;;5.27;4.77;;;;;;;21.66;58.99;98708.88;6936353;28;20318;-78
2022/06/04 00:34:15;;;;;;;5.60;4.63;;;;;;;21.75;59.07;98729.19;6948625;28;20226;-78
2022/06/04 00:37:37;;;;;;;5.43;5.03;;;;;;;22.01;57.90;98731.56;6947934;28;20231;-78
2022/06/04 00:41:07;;;;;;;6.70;5.13;;;;;;;21.83;58.53;98726.69;6948829;28;20231;-78
2022/06/04 00:45:04;;;;;;;4.90;4.40;;;;;;;22.12;56.95;98735.91;6948747;28;20205;-78
2022/06/04 00:48:27;;;;;;;5.53;5.03;;;;;;;21.66;58.70;98728.09;6948127;28;20258;-78
2022/06/04 00:51:50;;;;;;;5.30;4.83;;;;;;;21.64;59.10;98716.56;6948842;28;20572;-78
2022/06/04 00:55:12;;;;;;;6.30;4.63;;;;;;;21.57;58.16;98694.91;6947848;28;20303;-78
2022/06/04 00:58:44;;;;;;;5.60;5.00;;;;;;;21.24;59.67;98711.16;6947644;28;20213;-78
2022/06/04 01:02:16;;;;;;;5.30;4.80;;;;;;;21.44;59.45;98714.69;6947720;28;20301;-77
2022/06/04 01:05:49;;;;;;;5.83;5.07;;;;;;;21.24;60.29;98714.69;6947531;28;20209;-78
2022/06/04 01:09:21;;;;;;;6.77;4.50;;;;;;;21.56;59.52;98731.69;6947487;28;20273;-78
2022/06/04 01:12:58;;;;;;;5.47;4.40;;;;;;;21.73;58.88;98704.75;6948248;28;20191;-78
2022/06/04 01:16:24;;;;;;;5.00;4.50;;;;;;;21.68;58.98;98718.50;6947649;28;20740;-78
2022/06/04 01:19:58;;;;;;;5.10;4.60;;;;;;;21.51;58.99;98723.44;6946287;28;20228;-78
2022/06/04 01:23:49;;;;;;;6.00;5.50;;;;;;;21.50;59.58;98712.75;6945548;28;20308;-79
2022/06/04 01:27:17;;;;;;;6.27;4.80;;;;;;;21.89;58.34;98716.53;6947560;28;20184;-78
2022/06/04 01:30:42;;;;;;;4.50;4.10;;;;;;;21.61;59.03;98725.34;6946827;28;20229;-78
2022/06/04 01:34:06;;;;;;;4.60;4.20;;;;;;;21.51;59.19;98725.38;6947904;28;20230;-78
2022/06/04 01:37:32;;;;;;;4.90;4.40;;;;;;;21.81;58.48;98722.56;6947269;28;20228;-78
2022/06/04 01:41:05;;;;;;;4.93;4.47;;;;;;;21.77;58.04;98718.75;6948553;28;20231;-78
2022/06/04 01:44:31;;;;;;;5.67;4.63;;;;;;;21.37;59.14;98722.34;6961642;28;20300;-78
2022/06/04 01:47:54;;;;;;;5.50;5.00;;;;;;;20.90;60.56;98721.03;6947036;28;20329;-78
2022/06/04 01:51:20;;;;;;;5.47;4.97;;;;;;;21.39;59.57;98728.41;6947545;28;20431;-78
2022/06/04 01:54:57;;;;;;;5.37;4.90;;;;;;;21.14;59.44;98731.16;6947305;28;20628;-78
2022/06/04 01:58:20;;;;;;;5.00;4.60;;;;;;;21.22;58.89;98713.31;6946735;28;20561;-76
2022/06/04 02:01:45;;;;;;;6.13;5.30;;;;;;;20.90;60.44;98712.81;6946888;28;20696;-76
2022/06/04 02:05:08;;;;;;;5.50;5.00;;;;;;;21.15;59.76;98729.25;6946987;28;20207;-76
2022/06/04 02:08:33;;;;;;;5.03;4.53;;;;;;;20.84;60.40;98728.38;6946719;28;20291;-76
2022/06/04 02:11:56;;;;;;;5.60;4.63;;;;;;;21.25;59.19;98726.50;6946617;28;20274;-76
2022/06/04 02:15:20;;;;;;;5.13;4.30;;;;;;;21.29;58.89;98720.19;6947112;28;20250;-76
2022/06/04 02:18:43;;;;;;;5.17;4.60;;;;;;;21.00;59.46;98729.25;6946871;28;20255;-77
2022/06/04 02:22:05;;;;;;;6.60;5.90;;;;;;;20.78;60.47;98714.94;6948638;28;20722;-77
2022/06/04 02:25:29;;;;;;;5.67;5.07;;;;;;;20.61;60.35;98711.63;6946951;28;20238;-77
2022/06/04 02:28:51;;;;;;;5.27;4.77;;;;;;;20.53;60.44;98683.94;6946833;28;20296;-77
2022/06/04 02:32:20;;;;;;;7.80;4.87;;;;;;;20.72;60.43;98701.50;6920451;28;20239;-77
2022/06/04 02:35:46;;;;;;;5.77;5.10;;;;;;;20.74;60.47;98710.28;6924730;28;20555;-78
2022/06/04 02:39:11;;;;;;;5.83;5.33;;;;;;;20.88;60.44;98720.44;6925059;28;20383;-78
2022/06/04 02:42:36;;;;;;;8.10;5.27;;;;;;;20.84;59.73;98720.16;6925508;28;20229;-77
2022/06/04 02:46:01;;;;;;;5.20;4.70;;;;;;;20.72;60.03;98709.72;6925038;28;20216;-78
2022/06/04 02:49:25;;;;;;;5.07;4.67;;;;;;;20.77;59.75;98721.53;6924288;28;20250;-77
2022/06/04 02:52:48;;;;;;;5.20;4.80;;;;;;;20.93;59.93;98736.91;6925937;28;20218;-78
2022/06/04 02:56:12;;;;;;;4.80;4.40;;;;;;;21.07;59.07;98720.75;6925675;28;20303;-78
2022/06/04 02:59:35;;;;;;;5.90;5.40;;;;;;;20.44;59.13;98685.56;6925773;28;20229;-78
2022/06/04 03:02:56;;;;;;;5.90;5.40;;;;;;;20.43;60.97;98712.16;6926118;28;20650;-78
2022/06/04 03:06:24;;;;;;;6.63;5.93;;;;;;;20.87;59.43;98707.81;6925738;28;20213;-76
2022/06/04 03:09:47;;;;;;;8.73;5.70;;;;;;;19.79;62.20;98718.16;6925925;28;20229;-79
2022/06/04 03:13:09;;;;;;;8.47;5.70;;;;;;;19.88;62.09;98689.22;6926341;28;20204;-77
2022/06/04 03:16:35;;;;;;;6.67;5.20;;;;;;;20.53;61.17;98714.09;6925345;28;20208;-77
2022/06/04 03:19:57;;;;;;;7.30;5.60;;;;;;;20.68;60.73;98709.44;6924613;28;20219;-77
2022/06/04 03:23:19;;;;;;;6.60;6.00;;;;;;;20.35;61.85;98692.69;6924662;28;20242;-77
2022/06/04 03:26:42;;;;;;;6.17;5.67;;;;;;;20.64;61.27;98705.59;6925065;28;20205;-77
2022/06/04 03:30:04;;;;;;;7.13;6.53;;;;;;;20.58;60.90;98670.25;6924475;28;20274;-78
2022/06/04 03:33:26;;;;;;;6.27;5.40;;;;;;;20.84;60.42;98714.66;6924896;28;20678;-77
2022/06/04 03:36:47;;;;;;;7.67;5.73;;;;;;;20.75;60.08;98709.19;6925003;28;20320;-77
2022/06/04 03:40:10;;;;;;;6.50;5.97;;;;;;;20.73;60.15;98706.72;6924493;28;20227;-77
2022/06/04 03:43:33;;;;;;;5.87;5.33;;;;;;;20.82;60.68;98710.53;6924829;28;20288;-77
2022/06/04 03:46:54;;;;;;;6.63;5.93;;;;;;;20.96;59.74;98714.44;6927628;28;20247;-75
2022/06/04 03:50:18;;;;;;;6.17;5.57;;;;;;;20.71;60.14;98713.56;6930316;28;20237;-76
2022/06/04 03:53:39;;;;;;;9.23;5.80;;;;;;;20.59;60.51;98715.75;6924238;28;20230;-76
2022/06/04 04:00:39;;;;;;;8.00;6.30;;;;;;;20.38;61.05;98755.94;6923552;28;20239;-77
2022/06/04 04:04:02;;;;;;;6.60;5.60;;;;;;;19.83;62.82;98763.06;6923563;28;20650;-77
2022/06/04 04:07:23;;;;;;;6.97;5.37;;;;;;;20.22;62.40;98762.47;6923904;28;20322;-77
2022/06/04 04:10:46;;;;;;;6.00;5.20;;;;;;;20.08;62.95;98765.94;6922263;28;20385;-78
2022/06/04 04:14:07;;;;;;;6.53;5.93;;;;;;;20.30;62.87;98752.91;6922647;28;20209;-77
2022/06/04 04:17:31;;;;;;;7.20;6.53;;;;;;;20.67;62.37;98768.09;6923306;28;20219;-79
2022/06/04 04:20:53;;;;;;;6.93;6.23;;;;;;;20.83;61.83;98763.47;6923556;28;20601;-79
2022/06/04 04:24:14;;;;;;;5.60;5.10;;;;;;;21.41;60.30;98741.81;6923178;28;20261;-79
2022/06/04 04:27:36;;;;;;;6.33;5.57;;;;;;;21.33;58.78;98709.47;6927286;28;20735;-76
2022/06/04 04:30:58;;;;;;;5.53;5.03;;;;;;;21.56;58.14;98753.63;6940333;28;20227;-76
2022/06/04 04:34:21;;;;;;;5.23;4.80;;;;;;;21.75;57.18;98737.41;6924477;28;20211;-76
2022/06/04 04:37:42;;;;;;;4.70;4.30;;;;;;;21.62;57.68;98732.47;6949939;28;20212;-76
2022/06/04 04:41:09;;;;;;;6.50;5.10;;;;;;;21.43;57.95;98718.50;6951386;28;20233;-77
2022/06/04 04:44:31;;;;;;;6.67;5.10;;;;;;;21.17;58.57;98667.53;6950525;28;20223;-78
2022/06/04 04:47:53;;;;;;;5.70;5.20;;;;;;;20.77;60.06;98729.75;6950232;28;20717;-79
2022/06/04 04:51:20;;;;;;;7.17;5.60;;;;;;;21.45;60.45;98712.75;6949852;28;20258;-79
2022/06/04 04:54:41;;;;;;;5.63;5.10;;;;;;;21.48;58.89;98660.91;6949426;28;20192;-79
2022/06/04 04:58:04;;;;;;;6.10;5.60;;;;;;;21.94;58.67;98684.38;6948718;28;20247;-79
2022/06/04 05:01:27;;;;;;;5.63;5.13;;;;;;;22.38;58.34;98720.97;6949359;28;20240;-79
2022/06/04 05:04:48;;;;;;;6.17;4.70;;;;;;;22.98;57.38;98723.38;6949582;28;20261;-79
2022/06/04 05:08:11;;;;;;;5.20;4.80;;;;;;;23.40;56.02;98725.50;6949281;28;20217;-79
2022/06/04 05:11:33;;;;;;;7.10;4.83;;;;;;;23.58;54.72;98680.72;6949942;28;20227;-79
2022/06/04 05:14:55;;;;;;;5.07;4.63;;;;;;;23.68;54.61;98733.75;6947279;28;20276;-78
2022/06/04 05:18:16;;;;;;;4.97;4.57;;;;;;;23.81;54.82;98741.34;6948959;28;20312;-77
2022/06/04 05:21:43;;;;;;;6.47;4.93;;;;;;;23.87;54.63;98744.84;6949316;28;20257;-78
2022/06/04 05:25:07;;;;;;;5.60;5.10;;;;;;;23.51;55.10;98714.13;6949627;28;20290;-78
2022/06/04 05:28:28;;;;;;;5.63;5.03;;;;;;;23.59;55.47;98754.75;6949679;28;20259;-79
2022/06/04 05:31:52;;;;;;;5.63;5.00;;;;;;;23.50;55.87;98742.75;6948826;28;20307;-79
2022/06/04 05:35:13;;;;;;;6.43;5.73;;;;;;;23.76;55.77;98754.31;6949401;28;20578;-79
2022/06/04 05:38:36;;;;;;;5.83;5.33;;;;;;;23.78;55.68;98738.34;6948812;28;20625;-78
2022/06/04 05:41:59;;;;;;;6.60;6.00;;;;;;;23.75;56.95;98764.53;6948614;28;20568;-79
2022/06/04 05:45:21;;;;;;;6.20;5.60;;;;;;;23.76;56.83;98766.16;6949946;28;20314;-79
2022/06/04 05:48:44;;;;;;;6.30;5.70;;;;;;;24.01;55.99;98776.94;6951292;28;20704;-77
2022/06/04 05:52:06;;;;;;;6.17;5.53;;;;;;;24.05;54.72;98785.44;6957385;28;20247;-79
2022/06/04 05:55:28;;;;;;;9.53;6.30;;;;;;;23.49;56.93;98784.31;6950393;28;20205;-79
2022/06/04 05:58:53;;;;;;;6.50;6.00;;;;;;;23.77;55.64;98780.75;6949432;28;20203;-75
2022/06/04 06:02:14;;;;;;;6.30;5.80;;;;;;;23.48;56.42;98791.75;6949624;28;20303;-78
2022/06/04 06:05:41;;;;;;;6.47;5.87;;;;;;;23.49;56.04;98793.38;6949016;28;20316;-76
2022/06/04 06:09:06;;;;;;;5.93;5.33;;;;;;;24.31;54.09;98828.13;6952157;28;20306;-79
2022/06/04 06:12:28;;;;;;;6.33;5.83;;;;;;;23.99;55.34;98849.97;6954127;28;20222;-78
2022/06/04 06:15:51;;;;;;;6.17;5.07;;;;;;;23.79;56.18;98859.19;6954661;28;20295;-77
2022/06/04 06:19:14;;;;;;;5.97;4.97;;;;;;;23.37;57.14;98847.97;6954482;28;20227;-77
2022/06/04 06:22:36;;;;;;;5.20;4.70;;;;;;;23.90;55.63;98868.22;6954785;28;20217;-78
2022/06/04 06:25:58;;;;;;;5.67;5.17;;;;;;;24.02;54.60;98886.00;6954968;28;20237;-79
2022/06/04 06:29:19;;;;;;;6.90;4.83;;;;;;;23.56;56.15;98906.75;6953748;28;20229;-78
2022/06/04 06:32:42;;;;;;;7.67;4.77;;;;;;;23.29;56.40;98902.78;6940527;28;20207;-79
2022/06/04 06:36:06;;;;;;;5.57;5.07;;;;;;;23.68;56.28;98944.94;6926333;28;20212;-79
2022/06/04 06:39:28;;;;;;;8.43;5.70;;;;;;;23.28;57.35;98925.91;6926354;28;20307;-78
2022/06/04 06:42:49;;;;;;;6.67;5.37;;;;;;;23.22;59.45;98952.66;6926367;28;20262;-78
2022/06/04 06:46:14;;;;;;;7.37;5.90;;;;;;;22.35;61.75;98938.56;6926129;28;20208;-78
2022/06/04 06:49:37;;;;;;;7.23;6.53;;;;;;;22.89;61.57;98947.78;6925243;28;20250;-78
2022/06/04 06:52:58;;;;;;;6.70;6.10;;;;;;;22.80;61.35;98899.16;6943771;28;20202;-78
2022/06/04 06:56:23;;;;;;;7.97;6.83;;;;;;;23.21;60.70;98909.72;6952850;28;20287;-78
2022/06/04 06:59:47;;;;;;;7.80;6.73;;;;;;;23.63;60.23;98907.25;6924591;28;20257;-78
2022/06/04 07:03:08;;;;;;;7.97;6.90;;;;;;;23.41;60.16;98864.72;6925138;28;20232;-78
2022/06/04 07:06:34;;;;;;;9.07;6.80;;;;;;;22.78;62.35;98814.22;6947860;28;20541;-78
2022/06/04 07:09:56;;;;;;;7.43;6.80;;;;;;;23.14;62.67;98831.34;6951991;28;20264;-79
2022/06/04 07:13:17;;;;;;;7.47;6.73;;;;;;;23.67;60.95;98836.72;6952373;28;20241;-79
2022/06/04 07:16:39;;;;;;;8.33;7.53;;;;;;;23.51;62.08;98821.47;6952216;28;20270;-78
2022/06/04 07:20:00;;;;;;;8.30;7.50;;;;;;;22.66;63.69;98779.94;6950682;28;20254;-78
2022/06/04 07:23:23;;;;;;;9.90;8.90;;;;;;;22.52;64.50;98781.66;6952486;28;20223;-79
2022/06/04 07:26:45;;;;;;;7.83;7.13;;;;;;;23.01;63.51;98777.78;6952496;28;20218;-78
2022/06/04 07:30:07;;;;;;;7.80;7.00;;;;;;;23.18;62.89;98792.00;6948200;28;20296;-81
2022/06/04 07:33:29;;;;;;;7.80;7.10;;;;;;;23.87;61.37;98813.69;6923166;28;20232;-77
2022/06/04 07:36:51;;;;;;;9.37;8.23;;;;;;;23.82;62.34;98820.06;6924441;28;20220;-77
2022/06/04 07:40:14;;;;;;;10.17;9.07;;;;;;;24.01;62.39;98851.31;6923966;28;20241;-77
2022/06/04 07:43:36;;;;;;;9.33;8.40;;;;;;;24.43;61.91;98872.66;6948357;28;20308;-77
2022/06/04 07:46:58;;;;;;;10.30;9.30;;;;;;;24.18;63.71;98873.72;6951908;28;20235;-77
2022/06/04 07:50:20;;;;;;;10.03;8.37;;;;;;;24.56;62.58;98858.16;6950703;28;20234;-76
2022/06/04 07:53:42;;;;;;;11.53;8.07;;;;;;;25.33;61.74;98852.19;6949204;28;20288;-78
2022/06/04 07:57:05;;;;;;;10.07;7.70;;;;;;;25.54;59.76;98843.28;6948650;28;20266;-78
2022/06/04 08:00:27;;;;;;;9.77;7.33;;;;;;;26.14;56.97;98853.31;6948509;28;20640;-77
2022/06/04 08:03:49;;;;;;;8.43;7.73;;;;;;;25.66;56.89;98827.06;6934637;28;20779;-77
2022/06/04 08:07:12;;;;;;;8.47;7.60;;;;;;;26.01;55.43;98812.66;6929328;28;20205;-78
2022/06/04 08:10:33;;;;;;;8.97;7.93;;;;;;;26.14;55.38;98811.06;6950595;28;20922;-77
2022/06/04 08:13:56;;;;;;;8.43;7.57;;;;;;;26.70;54.02;98806.88;6950538;28;20214;-77
2022/06/04 08:17:18;;;;;;;8.00;7.20;;;;;;;26.80;53.27;98816.91;6950730;28;20711;-77
2022/06/04 08:20:41;;;;;;;7.83;7.10;;;;;;;27.45;52.51;98819.03;6935423;28;20312;-77
2022/06/04 08:24:04;;;;;;;8.07;6.50;;;;;;;27.83;51.27;98828.63;6932488;28;20708;-77
2022/06/04 08:27:25;;;;;;;7.90;7.10;;;;;;;28.17;50.67;98826.03;6923830;28;20212;-78
2022/06/04 08:30:48;;;;;;;7.63;6.40;;;;;;;29.25;46.83;98833.44;6923331;28;20224;-77
2022/06/04 08:34:10;;;;;;;7.27;6.50;;;;;;;29.06;47.19;98863.47;6922722;28;20211;-77
2022/06/04 08:37:32;;;;;;;7.50;6.80;;;;;;;28.43;47.76;98876.94;6922818;28;20684;-78
2022/06/04 08:40:55;;;;;;;7.10;6.40;;;;;;;28.85;48.34;98869.94;6922404;28;20217;-78
2022/06/04 08:44:20;;;;;;;7.63;7.03;;;;;;;28.44;48.37;98866.66;6921532;28;20236;-78
2022/06/04 08:47:47;;;;;;;8.10;7.30;;;;;;;28.75;46.68;98859.94;6932713;28;20238;-78
2022/06/04 08:51:19;;;;;;;6.53;5.83;;;;;;;28.72;48.37;98835.59;6946353;28;20227;-79
2022/06/04 08:58:43;;;;;;;7.27;6.57;;;;;;;29.55;46.50;98834.47;6948476;28;20209;-77
2022/06/04 09:02:11;;;;;;;9.47;8.60;;;;;;;28.25;48.01;98822.50;6948049;28;20297;-77
2022/06/04 09:05:55;;;;;;;8.67;7.33;;;;;;;28.71;48.87;98845.06;6948890;28;20213;-77
2022/06/04 09:09:19;;;;;;;8.87;7.73;;;;;;;27.88;49.37;98844.28;6948924;28;20310;-77
2022/06/04 09:12:44;;;;;;;8.53;7.63;;;;;;;28.05;49.72;98856.31;6949981;28;20219;-78
2022/06/04 09:16:12;;;;;;;8.20;7.40;;;;;;;27.48;50.15;98835.00;6949733;28;20192;-77
2022/06/04 09:19:36;;;;;;;9.13;7.93;;;;;;;27.44;51.19;98847.88;6949099;28;20301;-80
2022/06/04 09:23:04;;;;;;;8.23;7.43;;;;;;;28.25;48.21;98850.22;6950006;28;20207;-78
2022/06/04 09:26:29;;;;;;;9.50;7.40;;;;;;;27.04;50.30;98857.06;6949476;28;20216;-76
2022/06/04 09:30:06;;;;;;;8.37;7.03;;;;;;;28.37;48.25;98858.00;6948364;28;20248;-77
2022/06/04 09:33:39;;;;;;;6.97;6.30;;;;;;;29.22;45.40;98867.44;6949488;28;20203;-77
2022/06/04 09:37:00;;;;;;;7.40;6.30;;;;;;;29.25;44.65;98872.34;6949267;28;20576;-76
2022/06/04 09:40:26;;;;;;;6.13;5.53;;;;;;;29.17;46.50;98866.75;6947753;28;20773;-77
2022/06/04 09:43:59;;;;;;;7.90;6.70;;;;;;;29.30;46.01;98890.81;6949041;28;20763;-78
2022/06/04 09:47:23;;;;;;;6.77;6.17;;;;;;;30.17;44.07;98888.56;6947626;28;20201;-78
2022/06/04 09:50:51;;;;;;;6.27;5.67;;;;;;;28.65;45.22;98860.22;6948425;28;20313;-79
2022/06/04 09:54:21;;;;;;;7.40;6.70;;;;;;;28.40;46.93;98849.03;6948945;28;20205;-77
2022/06/04 09:57:54;;;;;;;6.90;6.30;;;;;;;28.66;47.55;98864.63;6947964;28;20226;-77
2022/06/04 10:01:23;;;;;;;8.90;6.37;;;;;;;28.57;46.65;98876.84;6947887;28;20730;-77
2022/06/04 10:04:47;;;;;;;7.13;6.63;;;;;;;28.66;48.21;98877.72;6948266;28;20216;-78
2022/06/04 10:08:12;;;;;;;7.57;6.83;;;;;;;28.74;47.74;98890.78;6947893;28;20218;-78
2022/06/04 10:11:34;;;;;;;8.97;8.17;;;;;;;28.63;47.95;98908.84;6948274;28;20253;-78
2022/06/04 10:14:59;;;;;;;7.53;6.93;;;;;;;28.08;49.38;98926.94;6948430;28;20298;-78
2022/06/04 10:18:28;;;;;;;8.40;7.27;;;;;;;28.12;49.22;98914.06;6947923;28;20663;-77
2022/06/04 10:22:02;;;;;;;6.60;6.10;;;;;;;28.57;47.56;98905.41;6947430;28;20230;-79
2022/06/04 10:25:29;;;;;;;9.53;8.73;;;;;;;27.28;50.33;98920.50;6948300;28;20212;-79
2022/06/04 10:29:04;;;;;;;9.13;8.27;;;;;;;27.62;49.59;98945.78;6948026;28;20576;-77
2022/06/04 10:32:36;;;;;;;9.43;8.67;;;;;;;27.28;50.94;98964.81;6948611;28;20191;-77
2022/06/04 10:36:08;;;;;;;12.03;10.93;;;;;;;27.01;52.45;98957.31;6948715;28;20229;-79
2022/06/04 10:39:38;;;;;;;12.90;11.73;;;;;;;26.39;53.71;98938.59;6948040;28;20716;-79
2022/06/04 10:43:06;;;;;;;13.20;11.97;;;;;;;26.82;53.19;98937.22;6948573;28;20289;-80
2022/06/04 10:46:34;;;;;;;14.67;13.27;;;;;;;27.00;52.21;98946.53;6946980;28;20214;-80
2022/06/04 10:50:17;;;;;;;14.77;13.40;;;;;;;26.93;53.28;98946.13;6948096;28;20227;-80
2022/06/04 10:53:53;;;;;;;17.57;16.07;;;;;;;26.57;57.23;98954.31;6948468;28;20215;-80
2022/06/04 10:57:22;;;;;;;18.63;17.03;;;;;;;26.17;56.17;98943.94;6952879;28;20678;-80
2022/06/04 11:00:47;;;;;;;18.17;16.47;;;;;;;26.94;55.95;98964.38;6950081;28;20247;-80
2022/06/04 11:04:17;;;;;;;19.47;17.70;;;;;;;26.12;55.16;98952.31;6925691;28;20318;-79
2022/06/04 11:07:53;;;;;;;16.20;14.67;;;;;;;26.47;55.49;98967.47;6949257;28;20207;-80
2022/06/04 11:11:17;;;;;;;15.40;13.93;;;;;;;26.98;53.03;98959.88;6954422;28;20227;-81
2022/06/04 11:14:43;;;;;;;17.50;13.63;;;;;;;27.14;51.58;98967.56;6949445;28;20200;-81
2022/06/04 11:18:12;;;;;;;13.33;11.97;;;;;;;26.00;53.12;98946.44;6954170;28;20239;-82
2022/06/04 11:21:37;;;;;;;13.50;12.20;;;;;;;26.18;52.34;98966.91;6954296;28;20224;-80
2022/06/04 11:25:03;;;;;;;13.73;12.53;;;;;;;25.74;53.85;98963.69;6953886;28;20260;-77
2022/06/04 11:28:27;;;;;;;13.23;12.13;;;;;;;26.13;53.51;98950.38;6952507;28;20199;-79
2022/06/04 11:32:08;;;;;;;14.50;13.30;;;;;;;25.95;53.94;98952.03;6953472;28;20231;-79
2022/06/04 11:35:41;;;;;;;15.00;13.60;;;;;;;25.59;54.95;98942.63;6953159;28;20285;-78
2022/06/04 11:39:10;;;;;;;14.60;13.20;;;;;;;26.01;55.33;98963.84;6952378;28;20285;-78
2022/06/04 11:42:39;;;;;;;14.63;13.23;;;;;;;26.16;54.03;98967.19;6953801;28;20196;-79
2022/06/04 11:46:07;;;;;;;14.10;12.70;;;;;;;26.62;53.25;98975.53;6948581;28;20702;-80
2022/06/04 11:49:35;;;;;;;13.67;12.53;;;;;;;26.32;53.23;98942.84;6949330;28;20231;-78
2022/06/04 11:53:03;;;;;;;14.50;12.90;;;;;;;26.58;53.46;98967.03;6952672;28;20277;-79
2022/06/04 11:56:32;;;;;;;13.13;11.93;;;;;;;26.50;52.52;98944.75;6951532;28;20330;-79
2022/06/04 12:00:05;;;;;;;12.50;11.40;;;;;;;26.71;52.60;98954.34;6952071;28;20226;-79
2022/06/04 12:03:31;;;;;;;12.33;11.17;;;;;;;26.76;52.55;98965.28;6952705;28;20211;-78
2022/06/04 12:06:55;;;;;;;12.73;11.40;;;;;;;26.75;52.34;98955.34;6950290;28;20664;-78
2022/06/04 12:10:23;;;;;;;11.40;10.30;;;;;;;26.67;52.80;98956.88;6952234;28;20257;-78
2022/06/04 12:13:52;;;;;;;12.07;11.07;;;;;;;26.88;51.72;98949.84;6952900;28;20714;-79
2022/06/04 12:17:18;;;;;;;12.80;11.60;;;;;;;26.76;52.36;98946.75;6952493;28;20217;-79
2022/06/04 12:24:32;;;;;;;14.27;12.87;;;;;;;26.13;52.31;98948.44;6952860;28;20630;-79
2022/06/04 12:27:56;;;;;;;13.90;12.53;;;;;;;26.21;52.49;98939.47;6951957;28;20230;-79
2022/06/04 12:31:30;;;;;;;12.90;11.70;;;;;;;27.13;50.64;98938.22;6952340;28;20234;-78
2022/06/04 12:35:07;;;;;;;10.37;9.50;;;;;;;27.61;50.10;98944.94;6952435;28;20189;-78
2022/06/04 12:38:44;;;;;;;12.30;11.07;;;;;;;27.31;49.97;98900.53;6952283;28;20207;-79
2022/06/04 12:42:12;;;;;;;12.07;11.07;;;;;;;27.82;49.25;98948.94;6922376;28;20235;-79
2022/06/04 12:45:38;;;;;;;11.10;10.00;;;;;;;27.87;48.76;98943.25;6922241;28;20227;-79
2022/06/04 12:49:05;;;;;;;9.97;8.87;;;;;;;28.62;46.43;98951.63;6905458;28;20287;-78
2022/06/04 12:52:37;;;;;;;8.77;8.07;;;;;;;28.92;45.29;98909.97;6911118;28;20250;-78
2022/06/04 12:56:04;;;;;;;9.17;8.30;;;;;;;29.30;45.17;98938.84;6899577;28;20283;-79
2022/06/04 12:59:38;;;;;;;9.80;8.80;;;;;;;29.30;45.13;98941.63;6900074;28;20367;-79
2022/06/04 13:03:28;;;;;;;9.30;8.50;;;;;;;28.71;45.78;98928.31;6905723;28;20320;-79
2022/06/04 13:06:51;;;;;;;10.70;9.80;;;;;;;28.68;46.22;98930.94;6925145;28;20238;-79
2022/06/04 13:10:25;;;;;;;9.10;8.07;;;;;;;29.12;45.35;98931.63;6916358;28;20703;-79
2022/06/04 13:13:51;;;;;;;9.37;8.57;;;;;;;30.09;43.61;98923.59;6907423;28;20221;-79
2022/06/04 13:17:33;;;;;;;9.47;8.50;;;;;;;29.74;43.25;98919.16;6912608;28;20209;-80
2022/06/04 13:20:58;;;;;;;8.13;7.43;;;;;;;30.32;43.28;98919.44;6959878;28;20246;-80
2022/06/04 13:24:22;;;;;;;7.57;6.97;;;;;;;30.42;41.22;98924.66;6936187;28;20202;-79
2022/06/04 13:27:50;;;;;;;7.53;6.80;;;;;;;29.98;42.97;98930.63;6950021;28;20230;-76
2022/06/04 13:31:18;;;;;;;7.60;6.83;;;;;;;29.36;42.96;98923.66;6951043;28;20227;-79
2022/06/04 13:34:41;;;;;;;13.67;9.70;;;;;;;29.55;42.80;98928.97;6951812;28;20219;-79
2022/06/04 13:38:04;;;;;;;34.00;26.40;;;;;;;28.85;43.36;98900.47;6950446;28;20211;-79
2022/06/04 13:45:22;;;;;;;6.70;5.93;;;;;;;30.05;42.42;98897.56;6951970;28;20213;-80
2022/06/04 13:48:53;;;;;;;5.57;5.07;;;;;;;30.67;41.59;98915.44;6950729;28;20218;-79
2022/06/04 13:52:17;;;;;;;5.83;5.33;;;;;;;31.26;39.16;98908.78;6949921;28;20210;-80
2022/06/04 13:55:44;;;;;;;6.70;5.33;;;;;;;30.51;40.97;98900.44;6950113;28;20264;-80
2022/06/04 13:59:06;;;;;;;8.10;5.83;;;;;;;30.20;41.85;98916.53;6949872;28;20255;-80
2022/06/04 14:02:30;;;;;;;5.53;4.97;;;;;;;30.83;39.92;98905.41;6949604;28;20283;-80
2022/06/04 14:05:54;;;;;;;5.80;5.30;;;;;;;30.76;40.26;98909.84;6950508;28;20232;-80
2022/06/04 14:09:21;;;;;;;5.40;5.00;;;;;;;30.96;39.68;98897.97;6950735;28;20278;-80
2022/06/04 14:12:49;;;;;;;6.00;5.40;;;;;;;30.70;39.76;98914.78;6950063;28;20186;-80
2022/06/04 14:16:22;;;;;;;6.73;5.33;;;;;;;30.71;39.90;98913.63;6951945;28;20194;-80
2022/06/04 14:19:58;;;;;;;6.30;5.70;;;;;;;30.93;40.02;98891.09;6950495;28;20233;-80
2022/06/04 14:23:32;;;;;;;5.43;4.93;;;;;;;30.74;39.61;98907.41;6949528;28;20191;-80
2022/06/04 14:26:58;;;;;;;4.90;4.50;;;;;;;30.34;40.37;98908.00;6950330;28;20215;-80
2022/06/04 14:30:22;;;;;;;6.63;4.60;;;;;;;31.15;40.26;98901.16;6953023;28;20225;-80
2022/06/04 14:33:45;;;;;;;5.13;4.73;;;;;;;31.39;39.25;98885.44;6955091;28;20214;-80
2022/06/04 14:37:10;;;;;;;5.40;4.93;;;;;;;30.92;39.71;98875.56;6955522;28;20231;-82
2022/06/04 14:40:36;;;;;;;5.10;4.70;;;;;;;31.80;37.89;98898.59;6954485;28;20269;-81
2022/06/04 14:44:31;;;;;;;4.80;4.30;;;;;;;31.08;39.31;98886.94;6954758;28;20216;-81
2022/06/04 14:48:39;;;;;;;5.20;4.20;;;;;;;30.82;38.75;98898.19;6954084;28;20204;-80
2022/06/04 14:52:25;;;;;;;4.90;3.80;;;;;;;31.25;37.12;98886.88;6949516;28;20234;-80
2022/06/04 14:56:06;;;;;;;3.63;3.23;;;;;;;30.48;36.28;98814.00;6948443;28;20204;-80
2022/06/04 14:59:51;;;;;;;4.77;3.80;;;;;;;30.12;38.62;98895.13;6961470;28;20591;-80
2022/06/04 15:03:24;;;;;;;3.97;3.10;;;;;;;30.63;37.48;98883.84;6954005;28;20299;-79
2022/06/04 15:06:56;;;;;;;3.10;2.90;;;;;;;29.85;38.30;98894.63;6946901;28;20674;-80
2022/06/04 15:10:25;;;;;;;3.60;3.30;;;;;;;30.94;37.16;98895.53;6954511;28;20283;-79
2022/06/04 15:13:56;;;;;;;4.53;3.50;;;;;;;30.44;37.62;98886.19;6955522;28;20198;-80
2022/06/04 15:17:25;;;;;;;3.73;3.27;;;;;;;30.44;37.07;98882.59;6959442;28;20351;-80
2022/06/04 15:20:51;;;;;;;3.43;2.90;;;;;;;30.42;36.50;98901.59;6953647;28;20247;-80
2022/06/04 15:24:26;;;;;;;3.43;3.03;;;;;;;30.93;35.56;98895.84;6958485;28;20199;-80
2022/06/04 15:28:01;;;;;;;4.33;3.17;;;;;;;30.12;36.75;98888.72;6954607;28;20368;-80
2022/06/04 15:35:20;;;;;;;3.43;3.13;;;;;;;30.63;36.37;98869.94;6957099;28;20239;-80
2022/06/04 15:38:47;;;;;;;3.77;3.20;;;;;;;31.08;34.80;98870.22;6952780;28;20197;-81
2022/06/04 15:42:19;;;;;;;3.17;2.97;;;;;;;31.00;35.44;98862.72;6956287;28;20254;-80
2022/06/04 15:46:00;;;;;;;3.97;3.57;;;;;;;30.75;36.30;98858.09;6926035;28;20217;-80
2022/06/04 15:56:48;;;;;;;3.10;2.90;;;;;;;30.34;36.85;98860.69;6925649;28;20694;-80
2022/06/04 16:00:19;;;;;;;3.77;3.47;;;;;;;30.57;37.23;98862.91;6933340;28;20322;-80
2022/06/04 16:03:52;;;;;;;4.30;3.90;;;;;;;30.48;38.45;98869.66;6954284;28;20216;-80
2022/06/04 16:07:44;;;;;;;4.90;4.13;;;;;;;30.33;38.33;98861.84;6953990;28;20372;-80
2022/06/04 16:11:19;;;;;;;5.57;4.07;;;;;;;30.52;39.02;98865.03;6953748;28;20227;-80
2022/06/04 16:14:51;;;;;;;5.47;4.10;;;;;;;30.76;38.35;98857.78;6952302;28;20263;-80
2022/06/04 16:18:21;;;;;;;4.17;3.87;;;;;;;30.99;38.07;98856.34;6952834;28;20204;-80
2022/06/04 16:21:50;;;;;;;4.23;3.87;;;;;;;30.78;38.00;98849.88;6951711;28;20260;-80
2022/06/04 16:25:23;;;;;;;5.43;4.17;;;;;;;30.84;37.81;98847.75;6952603;28;20215;-80
2022/06/04 16:28:51;;;;;;;4.80;4.30;;;;;;;30.29;39.31;98866.44;6947092;28;20197;-80
2022/06/04 16:32:15;;;;;;;4.77;4.33;;;;;;;31.01;37.97;98870.75;6952546;28;20278;-81
2022/06/04 16:36:04;;;;;;;6.40;4.30;;;;;;;30.93;37.91;98852.13;6951528;28;20708;-81
2022/06/04 16:39:29;;;;;;;5.07;4.57;;;;;;;30.88;38.61;98848.69;6950924;28;20233;-85
2022/06/04 16:42:53;;;;;;;5.43;4.97;;;;;;;30.88;39.00;98852.31;6952047;28;20208;-79
2022/06/04 16:46:18;;;;;;;4.83;4.43;;;;;;;30.06;40.30;98838.00;6953570;28;20231;-79